KBBW/BBW METAR and TAF weather

Enter ICAO airport designator
Station Type Date Time Source
KBBW METAR 2018/07/19 07:45 UTC NOAA

KBBW 190745Z AUTO 23005KT 10SM BKN013 22/21 A2992 RMK AO2 T02220211


Station Type Date Time Source
KBBW Decoded METAR 2018/07/19 07:45 UTC NOAA

BROKEN BOW MUNICIPAL AIRPORT, NE, United States (KBBW) 41-26N 099-38W
Jul 19, 2018 - 03:45 AM EDT / 2018.07.19 0745 UTC
Wind: from the SW (230 degrees) at 6 MPH (5 KT):0
Visibility: 10 mile(s):0
Sky conditions: mostly cloudy
Temperature: 72.0 F (22.2 C)
Dew Point: 70.0 F (21.1 C)
Relative Humidity: 93%
Pressure (altimeter): 29.92 in. Hg (1013 hPa)
ob: KBBW 190745Z AUTO 23005KT 10SM BKN013 22/21 A2992 RMK AO2 T02220211
cycle: 8

Station Type Date Time Source
KBBW TAF UTC NOAA

Error!


Example: see airport list